ADDS METAR Data INFO
IDs: Format: Raw Decoded Include TAF

Data at: 0300 UTC 17 Jan 2018

KACQ 170255Z AUTO 22005KT 10SM CLR M19/M22 A3058 RMK AO2
KACQ 170235Z AUTO 22003KT 10SM CLR M19/M22 A3058 RMK AO2
KACQ 170215Z AUTO 22006KT 10SM CLR M20/M22 A3059 RMK AO2
KACQ 170155Z AUTO 21005KT 10SM CLR M20/M22 A3060 RMK AO2
KACQ 170135Z AUTO 22004KT 10SM CLR M19/M22 A3060 RMK AO2
KACQ 170115Z AUTO 23005KT 10SM CLR M19/M22 A3060 RMK AO2
KACQ 170055Z AUTO 25005KT 10SM CLR M19/M22 A3061 RMK AO2
KACQ 170035Z AUTO 24005KT 10SM CLR M19/M22 A3062 RMK AO2
KACQ 170015Z AUTO 24006KT 10SM CLR M19/M22 A3062 RMK AO2
KACQ 162355Z AUTO 24005KT 10SM CLR M19/M22 A3063 RMK AO2
KACQ 162335Z AUTO 24006KT 10SM CLR M18/M21 A3063 RMK AO2
KACQ 162315Z AUTO 26005KT 10SM CLR M18/M21 A3063 RMK AO2
KACQ 162255Z AUTO 25005KT 10SM CLR M16/M20 A3063 RMK AO2
KACQ 162235Z AUTO 26005KT 10SM CLR M16/M20 A3063 RMK AO2
KACQ 162215Z AUTO 25006KT 10SM CLR M16/M19 A3064 RMK AO2
KACQ 162155Z AUTO 28006KT 10SM CLR M16/M19 A3064 RMK AO2
KACQ 162135Z AUTO 28006KT 10SM CLR M16/M19 A3064 RMK AO2
KACQ 162115Z AUTO 28007KT 7SM CLR M16/M19 A3064 RMK AO2
KACQ 162055Z AUTO 28008KT 7SM SCT010 M16/M19 A3065 RMK AO2
KACQ 162035Z AUTO 28009KT 7SM BKN010 M16/M19 A3065 RMK AO2
KACQ 162015Z AUTO 29008KT 7SM SCT008 M16/M20 A3065 RMK AO2
KACQ 161955Z AUTO 27009KT 7SM SCT008 M16/M20 A3065 RMK AO2
KACQ 161935Z AUTO 27008KT 5SM HZ BKN008 M16/M20 A3065 RMK AO2
KACQ 161915Z AUTO 28008KT 10SM OVC008 M16/M19 A3065 RMK AO2
KACQ 161855Z AUTO 29009KT 7SM BKN008 M17/M20 A3066 RMK AO2
KACQ 161835Z AUTO 29009KT 7SM BKN008 M16/M19 A3067 RMK AO2
KACQ 161815Z AUTO 27009KT 5SM HZ OVC008 M16/M19 A3067 RMK AO2
KACQ 161755Z AUTO 29008KT 7SM OVC008 M17/M20 A3068 RMK AO2
KACQ 161735Z AUTO 29007KT 7SM OVC008 M17/M20 A3068 RMK AO2
KACQ 161715Z AUTO 29007KT 10SM OVC008 M17/M20 A3069 RMK AO2
KACQ 161655Z AUTO 29008KT 10SM OVC008 M18/M20 A3070 RMK AO2
KACQ 161635Z AUTO 31009KT 5SM BR OVC008 M18/M20 A3070 RMK AO2
KACQ 161615Z AUTO 32008KT 5SM BR OVC010 M19/M21 A3070 RMK AO2
KACQ 161555Z AUTO 30010KT 4SM HZ OVC010 M19/M22 A3070 RMK AO2
KACQ 161535Z AUTO 31011KT 4SM HZ OVC008 M19/M22 A3070 RMK AO2
KACQ 161515Z AUTO 31010KT 4SM HZ OVC008 M19/M22 A3069 RMK AO2
KACQ 161455Z AUTO 30010KT 4SM HZ OVC008 M19/M22 A3068 RMK AO2
KACQ 161435Z AUTO 30012KT 7SM OVC008 M19/M22 A3068 RMK AO2
KACQ 161415Z AUTO 30012KT 7SM OVC010 M19/M22 A3068 RMK AO2
KACQ 161355Z AUTO 31010KT 7SM OVC010 M19/M22 A3067 RMK AO2
KACQ 161335Z AUTO 31012KT 7SM OVC010 M19/M22 A3068 RMK AO2
KACQ 161315Z AUTO 30009KT 7SM OVC010 M19/M22 A3067 RMK AO2
KACQ 161255Z AUTO 30011KT 7SM OVC010 M19/M22 A3067 RMK AO2
KACQ 161235Z AUTO 30011KT 7SM OVC010 M19/M22 A3066 RMK AO2
KACQ 161215Z AUTO 31014G17KT 7SM OVC010 M19/M22 A3066 RMK AO2
KACQ 161155Z AUTO 30014KT 7SM OVC010 M19/M22 A3065 RMK AO2
KACQ 161135Z AUTO 31013KT 5SM HZ OVC012 M19/M22 A3065 RMK AO2
KACQ 161115Z AUTO 31016KT 5SM HZ OVC010 M19/M22 A3064 RMK AO2
KACQ 161055Z AUTO 31016KT 5SM HZ OVC010 M19/M22 A3064 RMK AO2
KACQ 161035Z AUTO 31014KT 7SM OVC010 M19/M22 A3064 RMK AO2
KACQ 161015Z AUTO 30014KT 10SM SCT008 OVC012 M19/M22 A3064 RMK AO2
KACQ 160955Z AUTO 30012KT 10SM OVC012 M21/M23 A3063 RMK AO2
KACQ 160935Z AUTO 31010KT 10SM OVC012 M21/M23 A3063 RMK AO2
KACQ 160915Z AUTO 31010KT 10SM SCT012 SCT035 M21/M23 A3062 RMK AO2
KACQ 160855Z AUTO 30009KT 10SM BKN035 M21/M23 A3061 RMK AO2
KACQ 160835Z AUTO 31012KT 10SM -SN BKN037 BKN043 M21/M23 A3061 RMK AO2
KACQ 160815Z AUTO 31010KT 10SM SCT044 M20/M23 A3060 RMK AO2
KACQ 160755Z AUTO 31011KT 7SM SCT048 BKN070 M19/M22 A3060 RMK AO2
KACQ 160735Z AUTO 31011KT 7SM BKN070 M19/M22 A3059 RMK AO2
KACQ 160715Z AUTO 30011KT 5SM HZ SCT013 OVC070 M19/M22 A3058 RMK AO2
KACQ 160655Z AUTO 31011KT 7SM OVC015 M19/M22 A3058 RMK AO2
KACQ 160635Z AUTO 30009KT 5SM HZ OVC015 M19/M22 A3058 RMK AO2
KACQ 160616Z AUTO 30010KT 7SM OVC017 M19/M22 A3058 RMK AO2
KACQ 160555Z AUTO 29009KT 5SM -SN OVC017 M19/M22 A3058 RMK AO2
KACQ 160535Z AUTO 31010KT 3SM -SN SCT008 OVC017 M19/M22 A3058 RMK AO2
KACQ 160515Z AUTO 30014KT 5SM -SN OVC017 M19/M22 A3058 RMK AO2
KACQ 160455Z AUTO 30012KT 4SM -SN SCT009 SCT017 BKN021 M20/M22 A3057 RMK AO2
KACQ 160435Z AUTO 30011KT 4SM -SN SCT007 SCT023 BKN110 M21/M23 A3057 RMK AO2
KACQ 160415Z AUTO 30010KT 5SM -SN SCT005 SCT009 SCT015 M21/M23 A3056 RMK AO2
KACQ 160355Z AUTO 30010KT 5SM -SN SCT006 SCT013 BKN022 M20/M22 A3056 RMK AO2
KACQ 160335Z AUTO 30012KT 3SM -SN BKN009 BKN013 OVC022 M20/M22 A3055 RMK AO2
KACQ 160315Z AUTO 30012G17KT 5SM -SN BKN007 BKN013 BKN027 M21/M23 A3055 RMK AO2
KACQ 160255Z AUTO 29009KT 5SM -SN SCT007 SCT050 M21/M23 A3055 RMK AO2
KACQ 160235Z AUTO 30012KT 5SM -SN SCT009 SCT019 BKN028 M20/M22 A3055 RMK AO2
KACQ 160215Z AUTO 30011KT 5SM -SN SCT009 BKN018 OVC055 M19/M22 A3053 RMK AO2
KACQ 160155Z AUTO 30013G16KT 3SM -SN SCT009 SCT018 BKN120 M19/M22 A3053 RMK AO2
KACQ 160135Z AUTO 29012KT 3SM -SN SCT120 M19/M22 A3053 RMK AO2
KACQ 160115Z AUTO 30013KT 3SM -SN SCT015 SCT022 BKN060 M19/M22 A3052 RMK AO2
KACQ 160055Z AUTO 30015KT 3SM HZ SCT007 BKN018 OVC028 M19/M22 A3052 RMK AO2
KACQ 160035Z AUTO 30014KT 2SM -SN BKN009 OVC018 M18/M21 A3051 RMK AO2
KACQ 160015Z AUTO 30011KT 2 1/2SM -SN BKN007 BKN016 OVC031 M18/M21 A3051 RMK AO2
KACQ 152355Z AUTO 29011KT 2 1/2SM HZ SCT009 BKN022 OVC035 M18/M21 A3050 RMK AO2
KACQ 152335Z AUTO 31013G18KT 10SM BKN035 M18/M21 A3049 RMK AO2
KACQ 152315Z AUTO 31012KT 10SM SCT035 SCT110 M18/M21 A3048 RMK AO2
KACQ 152255Z AUTO 31015KT 7SM SCT012 SCT110 M18/M21 A3048 RMK AO2
KACQ 152235Z AUTO 31016G22KT 4SM HZ BKN012 BKN021 OVC095 M17/M21 A3047 RMK AO2
KACQ 152215Z AUTO 31016KT 4SM HZ BKN012 OVC035 M17/M21 A3046 RMK AO2
KACQ 152155Z AUTO 31017G21KT 2 1/2SM HZ SCT007 BKN014 OVC035 M16/M20 A3045 RMK AO2
KACQ 152135Z AUTO 30017KT 5SM HZ SCT009 SCT012 OVC035 M16/M20 A3044 RMK AO2
KACQ 152115Z AUTO 31016G20KT 3SM HZ SCT010 SCT016 OVC035 M16/M20 A3043 RMK AO2
KACQ 152055Z AUTO 31018G22KT 3SM HZ SCT016 BKN024 OVC037 M16/M20 A3042 RMK AO2
KACQ 152035Z AUTO 31018G22KT 3SM HZ SCT016 BKN024 OVC037 M16/M20 A3042 RMK AO2
KACQ 152015Z AUTO 31019KT 3SM HZ SCT010 SCT016 OVC037 M16/M21 A3041 RMK AO2
KACQ 151955Z AUTO 31019G23KT 4SM HZ BKN014 BKN036 M16/M21 A3041 RMK AO2
KACQ 151935Z AUTO 31020G26KT 2SM HZ M16/M21 A3040 RMK AO2 SKY OBSCURED
KACQ 151915Z AUTO 31020G24KT 3SM HZ OVC014 M16/M20 A3040 RMK AO2
KACQ 151855Z AUTO 31018G23KT 1 3/4SM HZ OVC014 M16/M20 A3040 RMK AO2
KACQ 151835Z AUTO 31016G23KT 2 1/2SM HZ OVC014 M16/M20 A3040 RMK AO2
KACQ 151815Z AUTO 31017G23KT 5SM HZ BKN014 M16/M20 A3040 RMK AO2
KACQ 151755Z AUTO 31016G22KT 3SM HZ OVC014 M16/M20 A3040 RMK AO2
KACQ 151735Z AUTO 31019G23KT 5SM HZ SCT014 SCT020 M16/M20 A3040 RMK AO2
KACQ 151715Z AUTO 31019G23KT 3SM HZ SCT016 BKN022 OVC034 M16/M20 A3040 RMK AO2
KACQ 151655Z AUTO 31016G23KT 4SM HZ SCT012 BKN034 OVC075 M16/M20 A3040 RMK AO2
KACQ 151635Z AUTO 31018G23KT 3SM HZ SCT012 BKN018 OVC075 M17/M21 A3040 RMK AO2
KACQ 151615Z AUTO 31015G23KT 2 1/2SM HZ SCT015 BKN020 OVC070 M17/M21 A3038 RMK AO2 VIS 2V4
KACQ 151555Z AUTO 31017G23KT 3SM HZ SCT014 SCT019 OVC070 M17/M21 A3038 RMK AO2
KACQ 151535Z AUTO 32017G22KT 3SM HZ OVC070 M18/M21 A3037 RMK AO2
KACQ 151515Z AUTO 31015G21KT 3SM HZ OVC070 M18/M21 A3036 RMK AO2